sensor_id;sensor_type;location;lat;lon;timestamp;P1;durP1;ratioP1;P2;durP2;ratioP2
45730;SDS011;31440;48.584;13.460;2022-11-15T00:01:52;14.63;;;7.95;;
45730;SDS011;31440;48.584;13.460;2022-11-15T00:04:36;11.70;;;7.72;;
45730;SDS011;31440;48.584;13.460;2022-11-15T00:07:21;12.40;;;7.30;;
45730;SDS011;31440;48.584;13.460;2022-11-15T00:10:05;10.45;;;7.18;;
45730;SDS011;31440;48.584;13.460;2022-11-15T00:12:50;11.88;;;7.53;;
45730;SDS011;31440;48.584;13.460;2022-11-15T00:15:35;11.02;;;7.00;;
45730;SDS011;31440;48.584;13.460;2022-11-15T00:18:20;9.40;;;6.95;;
45730;SDS011;31440;48.584;13.460;2022-11-15T00:21:08;9.85;;;7.43;;
45730;SDS011;31440;48.584;13.460;2022-11-15T00:23:54;10.40;;;7.35;;
45730;SDS011;31440;48.584;13.460;2022-11-15T00:26:38;10.07;;;6.50;;
45730;SDS011;31440;48.584;13.460;2022-11-15T00:29:23;13.13;;;8.13;;
45730;SDS011;31440;48.584;13.460;2022-11-15T00:32:07;14.90;;;8.02;;
45730;SDS011;31440;48.584;13.460;2022-11-15T00:34:51;11.20;;;8.02;;
45730;SDS011;31440;48.584;13.460;2022-11-15T00:37:35;11.57;;;7.00;;
45730;SDS011;31440;48.584;13.460;2022-11-15T00:40:19;13.85;;;7.68;;
45730;SDS011;31440;48.584;13.460;2022-11-15T00:43:04;10.38;;;7.00;;
45730;SDS011;31440;48.584;13.460;2022-11-15T00:45:48;12.00;;;8.50;;
45730;SDS011;31440;48.584;13.460;2022-11-15T00:48:32;10.88;;;7.90;;
45730;SDS011;31440;48.584;13.460;2022-11-15T00:51:18;12.15;;;7.97;;
45730;SDS011;31440;48.584;13.460;2022-11-15T00:54:02;13.38;;;6.97;;
45730;SDS011;31440;48.584;13.460;2022-11-15T00:56:46;14.77;;;7.53;;
45730;SDS011;31440;48.584;13.460;2022-11-15T00:59:31;9.82;;;6.82;;
45730;SDS011;31440;48.584;13.460;2022-11-15T01:02:14;14.02;;;7.55;;
45730;SDS011;31440;48.584;13.460;2022-11-15T01:04:59;13.27;;;7.93;;
45730;SDS011;31440;48.584;13.460;2022-11-15T01:07:43;12.50;;;7.45;;
45730;SDS011;31440;48.584;13.460;2022-11-15T01:10:27;9.55;;;7.07;;
45730;SDS011;31440;48.584;13.460;2022-11-15T01:13:11;10.30;;;6.80;;
45730;SDS011;31440;48.584;13.460;2022-11-15T01:15:56;11.93;;;7.53;;
45730;SDS011;31440;48.584;13.460;2022-11-15T01:18:40;10.73;;;6.93;;
45730;SDS011;31440;48.584;13.460;2022-11-15T01:21:25;10.10;;;6.53;;
45730;SDS011;31440;48.584;13.460;2022-11-15T01:24:11;9.77;;;6.80;;
45730;SDS011;31440;48.584;13.460;2022-11-15T01:26:56;12.52;;;6.90;;
45730;SDS011;31440;48.584;13.460;2022-11-15T01:29:41;10.85;;;6.97;;
45730;SDS011;31440;48.584;13.460;2022-11-15T01:32:25;9.88;;;6.63;;
45730;SDS011;31440;48.584;13.460;2022-11-15T01:35:09;11.48;;;6.53;;
45730;SDS011;31440;48.584;13.460;2022-11-15T01:37:53;15.32;;;6.63;;
45730;SDS011;31440;48.584;13.460;2022-11-15T01:40:38;11.43;;;6.18;;
45730;SDS011;31440;48.584;13.460;2022-11-15T01:43:23;13.20;;;6.70;;
45730;SDS011;31440;48.584;13.460;2022-11-15T01:49:20;11.32;;;7.65;;
45730;SDS011;31440;48.584;13.460;2022-11-15T01:52:07;12.25;;;7.20;;
45730;SDS011;31440;48.584;13.460;2022-11-15T01:57:53;10.35;;;6.60;;
45730;SDS011;31440;48.584;13.460;2022-11-15T02:00:40;9.77;;;6.80;;
45730;SDS011;31440;48.584;13.460;2022-11-15T02:03:25;8.90;;;6.47;;
45730;SDS011;31440;48.584;13.460;2022-11-15T02:06:18;9.95;;;6.85;;
45730;SDS011;31440;48.584;13.460;2022-11-15T02:09:03;10.82;;;6.70;;
45730;SDS011;31440;48.584;13.460;2022-11-15T02:11:47;10.38;;;5.88;;
45730;SDS011;31440;48.584;13.460;2022-11-15T02:14:33;9.15;;;6.07;;
45730;SDS011;31440;48.584;13.460;2022-11-15T02:17:29;10.68;;;7.03;;
45730;SDS011;31440;48.584;13.460;2022-11-15T02:20:39;11.15;;;7.25;;
45730;SDS011;31440;48.584;13.460;2022-11-15T02:26:39;15.13;;;7.22;;
45730;SDS011;31440;48.584;13.460;2022-11-15T02:30:00;10.52;;;5.82;;
45730;SDS011;31440;48.584;13.460;2022-11-15T02:32:58;8.02;;;5.38;;
45730;SDS011;31440;48.584;13.460;2022-11-15T02:35:57;9.40;;;5.65;;
45730;SDS011;31440;48.584;13.460;2022-11-15T02:38:49;8.88;;;6.20;;
45730;SDS011;31440;48.584;13.460;2022-11-15T02:41:51;8.68;;;6.03;;
45730;SDS011;31440;48.584;13.460;2022-11-15T02:44:42;12.27;;;6.55;;
45730;SDS011;31440;48.584;13.460;2022-11-15T02:47:30;8.93;;;5.60;;
45730;SDS011;31440;48.584;13.460;2022-11-15T02:50:20;10.20;;;6.22;;
45730;SDS011;31440;48.584;13.460;2022-11-15T02:53:08;9.88;;;7.03;;
45730;SDS011;31440;48.584;13.460;2022-11-15T02:55:53;10.55;;;6.70;;
45730;SDS011;31440;48.584;13.460;2022-11-15T03:04:23;9.57;;;6.35;;
45730;SDS011;31440;48.584;13.460;2022-11-15T03:10:51;9.20;;;6.03;;
45730;SDS011;31440;48.584;13.460;2022-11-15T03:17:19;10.23;;;6.15;;
45730;SDS011;31440;48.584;13.460;2022-11-15T03:20:08;10.65;;;6.43;;
45730;SDS011;31440;48.584;13.460;2022-11-15T03:22:56;10.95;;;6.55;;
45730;SDS011;31440;48.584;13.460;2022-11-15T03:25:53;9.73;;;5.35;;
45730;SDS011;31440;48.584;13.460;2022-11-15T03:28:47;8.70;;;5.40;;
45730;SDS011;31440;48.584;13.460;2022-11-15T03:31:36;7.82;;;5.68;;
45730;SDS011;31440;48.584;13.460;2022-11-15T03:34:47;8.27;;;5.75;;
45730;SDS011;31440;48.584;13.460;2022-11-15T03:37:38;9.95;;;5.35;;
45730;SDS011;31440;48.584;13.460;2022-11-15T03:43:34;10.27;;;6.20;;
45730;SDS011;31440;48.584;13.460;2022-11-15T03:46:38;8.05;;;6.03;;
45730;SDS011;31440;48.584;13.460;2022-11-15T03:49:27;10.02;;;5.82;;
45730;SDS011;31440;48.584;13.460;2022-11-15T03:52:19;7.85;;;5.72;;
45730;SDS011;31440;48.584;13.460;2022-11-15T03:55:06;10.95;;;6.60;;
45730;SDS011;31440;48.584;13.460;2022-11-15T03:57:54;11.38;;;6.25;;
45730;SDS011;31440;48.584;13.460;2022-11-15T04:00:42;7.53;;;5.85;;
45730;SDS011;31440;48.584;13.460;2022-11-15T04:03:26;8.15;;;5.38;;
45730;SDS011;31440;48.584;13.460;2022-11-15T04:06:10;10.77;;;5.78;;
45730;SDS011;31440;48.584;13.460;2022-11-15T04:08:55;10.20;;;6.70;;
45730;SDS011;31440;48.584;13.460;2022-11-15T04:11:39;8.50;;;6.00;;
45730;SDS011;31440;48.584;13.460;2022-11-15T04:14:23;10.20;;;6.43;;
45730;SDS011;31440;48.584;13.460;2022-11-15T04:17:07;7.63;;;5.47;;
45730;SDS011;31440;48.584;13.460;2022-11-15T04:19:51;9.88;;;5.18;;
45730;SDS011;31440;48.584;13.460;2022-11-15T04:22:56;8.98;;;5.82;;
45730;SDS011;31440;48.584;13.460;2022-11-15T04:26:01;9.35;;;6.03;;
45730;SDS011;31440;48.584;13.460;2022-11-15T04:28:48;11.50;;;6.28;;
45730;SDS011;31440;48.584;13.460;2022-11-15T04:31:51;11.80;;;6.90;;
45730;SDS011;31440;48.584;13.460;2022-11-15T04:34:36;10.52;;;7.32;;
45730;SDS011;31440;48.584;13.460;2022-11-15T04:37:22;12.40;;;7.07;;
45730;SDS011;31440;48.584;13.460;2022-11-15T04:40:06;11.23;;;7.00;;
45730;SDS011;31440;48.584;13.460;2022-11-15T04:42:51;10.85;;;6.80;;
45730;SDS011;31440;48.584;13.460;2022-11-15T04:45:36;10.43;;;6.75;;
45730;SDS011;31440;48.584;13.460;2022-11-15T04:48:20;10.85;;;6.80;;
45730;SDS011;31440;48.584;13.460;2022-11-15T04:51:04;8.38;;;5.75;;
45730;SDS011;31440;48.584;13.460;2022-11-15T04:53:49;7.35;;;5.72;;
45730;SDS011;31440;48.584;13.460;2022-11-15T04:56:33;9.40;;;6.13;;
45730;SDS011;31440;48.584;13.460;2022-11-15T04:59:17;7.15;;;5.38;;
45730;SDS011;31440;48.584;13.460;2022-11-15T05:02:01;7.72;;;5.28;;
45730;SDS011;31440;48.584;13.460;2022-11-15T05:04:46;9.32;;;5.78;;
45730;SDS011;31440;48.584;13.460;2022-11-15T05:07:30;27.65;;;6.70;;
45730;SDS011;31440;48.584;13.460;2022-11-15T05:12:58;92.70;;;9.25;;
45730;SDS011;31440;48.584;13.460;2022-11-15T05:15:42;12.50;;;4.35;;
45730;SDS011;31440;48.584;13.460;2022-11-15T05:18:26;7.78;;;4.18;;
45730;SDS011;31440;48.584;13.460;2022-11-15T05:21:12;33.83;;;5.75;;
45730;SDS011;31440;48.584;13.460;2022-11-15T05:23:58;12.68;;;3.92;;
45730;SDS011;31440;48.584;13.460;2022-11-15T05:26:42;38.30;;;5.50;;
45730;SDS011;31440;48.584;13.460;2022-11-15T05:29:27;25.88;;;5.15;;
45730;SDS011;31440;48.584;13.460;2022-11-15T05:32:11;12.95;;;4.68;;
45730;SDS011;31440;48.584;13.460;2022-11-15T05:34:56;45.83;;;6.13;;
45730;SDS011;31440;48.584;13.460;2022-11-15T05:37:40;16.92;;;4.45;;
45730;SDS011;31440;48.584;13.460;2022-11-15T05:40:25;18.85;;;5.05;;
45730;SDS011;31440;48.584;13.460;2022-11-15T05:43:09;19.20;;;4.10;;
45730;SDS011;31440;48.584;13.460;2022-11-15T05:45:54;18.63;;;4.85;;
45730;SDS011;31440;48.584;13.460;2022-11-15T05:48:38;163.00;;;12.98;;
45730;SDS011;31440;48.584;13.460;2022-11-15T05:51:27;255.13;;;18.73;;
45730;SDS011;31440;48.584;13.460;2022-11-15T05:54:13;23.50;;;4.93;;
45730;SDS011;31440;48.584;13.460;2022-11-15T05:56:58;10.88;;;4.55;;
45730;SDS011;31440;48.584;13.460;2022-11-15T05:59:43;29.00;;;5.55;;
45730;SDS011;31440;48.584;13.460;2022-11-15T06:02:27;17.45;;;4.38;;
45730;SDS011;31440;48.584;13.460;2022-11-15T06:05:12;9.45;;;4.80;;
45730;SDS011;31440;48.584;13.460;2022-11-15T06:07:57;14.23;;;4.22;;
45730;SDS011;31440;48.584;13.460;2022-11-15T06:10:42;9.85;;;4.20;;
45730;SDS011;31440;48.584;13.460;2022-11-15T06:13:26;10.15;;;4.68;;
45730;SDS011;31440;48.584;13.460;2022-11-15T06:16:11;7.82;;;4.18;;
45730;SDS011;31440;48.584;13.460;2022-11-15T06:18:55;10.38;;;4.88;;
45730;SDS011;31440;48.584;13.460;2022-11-15T06:21:39;5.32;;;3.65;;
45730;SDS011;31440;48.584;13.460;2022-11-15T06:24:23;16.17;;;4.15;;
45730;SDS011;31440;48.584;13.460;2022-11-15T06:27:08;7.82;;;4.47;;
45730;SDS011;31440;48.584;13.460;2022-11-15T06:29:52;9.77;;;4.32;;
45730;SDS011;31440;48.584;13.460;2022-11-15T06:32:36;7.75;;;3.70;;
45730;SDS011;31440;48.584;13.460;2022-11-15T06:35:20;11.82;;;4.07;;
45730;SDS011;31440;48.584;13.460;2022-11-15T06:38:05;9.30;;;4.82;;
45730;SDS011;31440;48.584;13.460;2022-11-15T06:40:51;7.50;;;5.05;;
45730;SDS011;31440;48.584;13.460;2022-11-15T06:43:35;10.80;;;4.28;;
45730;SDS011;31440;48.584;13.460;2022-11-15T06:46:20;44.53;;;5.68;;
45730;SDS011;31440;48.584;13.460;2022-11-15T06:49:04;29.40;;;5.10;;
45730;SDS011;31440;48.584;13.460;2022-11-15T06:51:48;36.88;;;5.90;;
45730;SDS011;31440;48.584;13.460;2022-11-15T06:54:33;49.15;;;7.10;;
45730;SDS011;31440;48.584;13.460;2022-11-15T06:57:17;31.95;;;6.15;;
45730;SDS011;31440;48.584;13.460;2022-11-15T07:00:03;30.77;;;5.35;;
45730;SDS011;31440;48.584;13.460;2022-11-15T07:02:48;11.60;;;4.63;;
45730;SDS011;31440;48.584;13.460;2022-11-15T07:05:32;32.95;;;5.00;;
45730;SDS011;31440;48.584;13.460;2022-11-15T07:08:17;32.70;;;6.68;;
45730;SDS011;31440;48.584;13.460;2022-11-15T07:11:02;26.83;;;5.80;;
45730;SDS011;31440;48.584;13.460;2022-11-15T07:13:48;53.65;;;6.80;;
45730;SDS011;31440;48.584;13.460;2022-11-15T07:16:33;29.02;;;5.90;;
45730;SDS011;31440;48.584;13.460;2022-11-15T07:19:17;19.83;;;5.18;;
45730;SDS011;31440;48.584;13.460;2022-11-15T07:22:01;19.58;;;5.47;;
45730;SDS011;31440;48.584;13.460;2022-11-15T07:24:45;59.92;;;7.57;;
45730;SDS011;31440;48.584;13.460;2022-11-15T07:27:30;16.85;;;5.22;;
45730;SDS011;31440;48.584;13.460;2022-11-15T07:30:14;20.90;;;5.95;;
45730;SDS011;31440;48.584;13.460;2022-11-15T07:32:59;37.55;;;6.63;;
45730;SDS011;31440;48.584;13.460;2022-11-15T07:35:44;35.83;;;5.40;;
45730;SDS011;31440;48.584;13.460;2022-11-15T07:38:32;27.67;;;6.03;;
45730;SDS011;31440;48.584;13.460;2022-11-15T07:41:18;16.35;;;5.45;;
45730;SDS011;31440;48.584;13.460;2022-11-15T07:44:02;28.08;;;5.47;;
45730;SDS011;31440;48.584;13.460;2022-11-15T07:46:46;26.55;;;6.68;;
45730;SDS011;31440;48.584;13.460;2022-11-15T07:49:30;18.67;;;6.70;;
45730;SDS011;31440;48.584;13.460;2022-11-15T07:52:14;20.85;;;6.80;;
45730;SDS011;31440;48.584;13.460;2022-11-15T07:54:59;14.00;;;6.88;;
45730;SDS011;31440;48.584;13.460;2022-11-15T07:57:43;20.52;;;5.97;;
45730;SDS011;31440;48.584;13.460;2022-11-15T08:00:28;11.40;;;5.63;;
45730;SDS011;31440;48.584;13.460;2022-11-15T08:03:12;12.32;;;7.38;;
45730;SDS011;31440;48.584;13.460;2022-11-15T08:05:58;12.68;;;6.45;;
45730;SDS011;31440;48.584;13.460;2022-11-15T08:08:42;11.82;;;7.03;;
45730;SDS011;31440;48.584;13.460;2022-11-15T08:11:26;10.75;;;6.93;;
45730;SDS011;31440;48.584;13.460;2022-11-15T08:14:10;10.15;;;7.18;;
45730;SDS011;31440;48.584;13.460;2022-11-15T08:16:55;9.75;;;7.03;;
45730;SDS011;31440;48.584;13.460;2022-11-15T08:19:39;9.80;;;6.43;;
45730;SDS011;31440;48.584;13.460;2022-11-15T08:22:23;8.98;;;6.68;;
45730;SDS011;31440;48.584;13.460;2022-11-15T08:25:08;10.95;;;6.28;;
45730;SDS011;31440;48.584;13.460;2022-11-15T08:27:53;9.40;;;5.88;;
45730;SDS011;31440;48.584;13.460;2022-11-15T08:30:39;11.88;;;5.28;;
45730;SDS011;31440;48.584;13.460;2022-11-15T08:33:26;6.07;;;5.13;;
45730;SDS011;31440;48.584;13.460;2022-11-15T08:36:12;7.75;;;4.65;;
45730;SDS011;31440;48.584;13.460;2022-11-15T08:38:58;15.50;;;5.55;;
45730;SDS011;31440;48.584;13.460;2022-11-15T08:41:42;6.82;;;4.95;;
45730;SDS011;31440;48.584;13.460;2022-11-15T08:44:26;11.27;;;5.28;;
45730;SDS011;31440;48.584;13.460;2022-11-15T08:47:11;8.63;;;5.65;;
45730;SDS011;31440;48.584;13.460;2022-11-15T08:49:55;8.50;;;5.75;;
45730;SDS011;31440;48.584;13.460;2022-11-15T08:52:39;10.25;;;6.00;;
45730;SDS011;31440;48.584;13.460;2022-11-15T08:55:23;21.73;;;7.05;;
45730;SDS011;31440;48.584;13.460;2022-11-15T08:58:08;10.57;;;6.78;;
45730;SDS011;31440;48.584;13.460;2022-11-15T09:00:52;8.40;;;6.18;;
45730;SDS011;31440;48.584;13.460;2022-11-15T09:03:36;9.27;;;6.50;;
45730;SDS011;31440;48.584;13.460;2022-11-15T09:06:20;9.48;;;6.40;;
45730;SDS011;31440;48.584;13.460;2022-11-15T09:09:05;12.40;;;7.18;;
45730;SDS011;31440;48.584;13.460;2022-11-15T09:11:49;8.70;;;6.05;;
45730;SDS011;31440;48.584;13.460;2022-11-15T09:14:34;9.55;;;5.97;;
45730;SDS011;31440;48.584;13.460;2022-11-15T09:17:18;11.30;;;6.53;;
45730;SDS011;31440;48.584;13.460;2022-11-15T09:20:03;7.68;;;5.50;;
45730;SDS011;31440;48.584;13.460;2022-11-15T09:22:48;30.55;;;8.18;;
45730;SDS011;31440;48.584;13.460;2022-11-15T09:25:32;12.48;;;5.53;;
45730;SDS011;31440;48.584;13.460;2022-11-15T09:28:17;8.38;;;5.80;;
45730;SDS011;31440;48.584;13.460;2022-11-15T09:31:02;11.25;;;6.05;;
45730;SDS011;31440;48.584;13.460;2022-11-15T09:33:48;8.82;;;5.10;;
45730;SDS011;31440;48.584;13.460;2022-11-15T09:36:32;7.95;;;5.50;;
45730;SDS011;31440;48.584;13.460;2022-11-15T09:39:16;8.10;;;5.65;;
45730;SDS011;31440;48.584;13.460;2022-11-15T09:51:43;9.43;;;6.28;;
45730;SDS011;31440;48.584;13.460;2022-11-15T09:59:36;7.82;;;5.88;;
45730;SDS011;31440;48.584;13.460;2022-11-15T10:05:02;8.32;;;5.47;;
45730;SDS011;31440;48.584;13.460;2022-11-15T10:07:46;8.27;;;6.50;;
45730;SDS011;31440;48.584;13.460;2022-11-15T10:10:22;8.63;;;6.40;;
45730;SDS011;31440;48.584;13.460;2022-11-15T10:12:55;10.02;;;6.50;;
45730;SDS011;31440;48.584;13.460;2022-11-15T10:15:20;9.70;;;6.65;;
45730;SDS011;31440;48.584;13.460;2022-11-15T10:20:59;8.45;;;6.00;;
45730;SDS011;31440;48.584;13.460;2022-11-15T10:23:34;11.80;;;8.07;;
45730;SDS011;31440;48.584;13.460;2022-11-15T10:26:00;18.20;;;10.07;;
45730;SDS011;31440;48.584;13.460;2022-11-15T10:28:29;16.27;;;11.13;;
45730;SDS011;31440;48.584;13.460;2022-11-15T10:30:57;12.13;;;9.45;;
45730;SDS011;31440;48.584;13.460;2022-11-15T10:33:34;12.18;;;8.13;;
45730;SDS011;31440;48.584;13.460;2022-11-15T10:38:33;14.20;;;9.30;;
45730;SDS011;31440;48.584;13.460;2022-11-15T10:41:15;13.63;;;9.55;;
45730;SDS011;31440;48.584;13.460;2022-11-15T10:43:44;13.15;;;9.07;;
45730;SDS011;31440;48.584;13.460;2022-11-15T10:46:27;13.43;;;8.88;;
45730;SDS011;31440;48.584;13.460;2022-11-15T10:48:53;19.80;;;9.52;;
45730;SDS011;31440;48.584;13.460;2022-11-15T10:51:24;12.82;;;9.38;;
45730;SDS011;31440;48.584;13.460;2022-11-15T10:53:54;17.15;;;9.88;;
45730;SDS011;31440;48.584;13.460;2022-11-15T10:56:22;13.38;;;9.15;;
45730;SDS011;31440;48.584;13.460;2022-11-15T10:58:51;14.45;;;8.95;;
45730;SDS011;31440;48.584;13.460;2022-11-15T11:01:22;12.35;;;8.60;;
45730;SDS011;31440;48.584;13.460;2022-11-15T11:03:59;15.68;;;10.68;;
45730;SDS011;31440;48.584;13.460;2022-11-15T11:06:45;14.75;;;9.40;;
45730;SDS011;31440;48.584;13.460;2022-11-15T11:09:30;15.30;;;10.30;;
45730;SDS011;31440;48.584;13.460;2022-11-15T11:11:56;15.80;;;10.13;;
45730;SDS011;31440;48.584;13.460;2022-11-15T11:14:23;13.15;;;10.85;;
45730;SDS011;31440;48.584;13.460;2022-11-15T11:16:54;12.35;;;8.68;;
45730;SDS011;31440;48.584;13.460;2022-11-15T11:24:55;17.27;;;10.52;;
45730;SDS011;31440;48.584;13.460;2022-11-15T11:32:57;14.98;;;9.65;;
45730;SDS011;31440;48.584;13.460;2022-11-15T11:35:48;14.20;;;10.05;;
45730;SDS011;31440;48.584;13.460;2022-11-15T11:44:38;16.05;;;10.63;;
45730;SDS011;31440;48.584;13.460;2022-11-15T11:47:24;15.63;;;10.35;;
45730;SDS011;31440;48.584;13.460;2022-11-15T11:50:04;17.80;;;11.40;;
45730;SDS011;31440;48.584;13.460;2022-11-15T11:52:42;17.90;;;12.80;;
45730;SDS011;31440;48.584;13.460;2022-11-15T11:58:14;16.13;;;11.73;;
45730;SDS011;31440;48.584;13.460;2022-11-15T12:00:49;16.30;;;13.10;;
45730;SDS011;31440;48.584;13.460;2022-11-15T12:06:26;18.77;;;13.23;;
45730;SDS011;31440;48.584;13.460;2022-11-15T12:11:48;16.13;;;11.65;;
45730;SDS011;31440;48.584;13.460;2022-11-15T12:14:35;15.60;;;11.98;;
45730;SDS011;31440;48.584;13.460;2022-11-15T12:17:10;16.55;;;11.50;;
45730;SDS011;31440;48.584;13.460;2022-11-15T12:19:37;15.32;;;11.80;;
45730;SDS011;31440;48.584;13.460;2022-11-15T12:22:09;19.58;;;13.30;;
45730;SDS011;31440;48.584;13.460;2022-11-15T12:24:43;14.23;;;10.43;;
45730;SDS011;31440;48.584;13.460;2022-11-15T12:27:17;16.20;;;11.90;;
45730;SDS011;31440;48.584;13.460;2022-11-15T12:30:09;18.77;;;12.80;;
45730;SDS011;31440;48.584;13.460;2022-11-15T12:32:38;19.67;;;12.70;;
45730;SDS011;31440;48.584;13.460;2022-11-15T12:35:24;18.10;;;11.95;;
45730;SDS011;31440;48.584;13.460;2022-11-15T12:38:02;18.27;;;12.43;;
45730;SDS011;31440;48.584;13.460;2022-11-15T12:40:31;18.33;;;13.02;;
45730;SDS011;31440;48.584;13.460;2022-11-15T12:45:43;19.40;;;13.07;;
45730;SDS011;31440;48.584;13.460;2022-11-15T12:56:08;17.20;;;12.02;;
45730;SDS011;31440;48.584;13.460;2022-11-15T12:58:45;16.85;;;11.95;;
45730;SDS011;31440;48.584;13.460;2022-11-15T13:04:12;18.63;;;12.70;;
45730;SDS011;31440;48.584;13.460;2022-11-15T13:11:59;20.15;;;12.30;;
45730;SDS011;31440;48.584;13.460;2022-11-15T13:17:17;19.00;;;12.43;;
45730;SDS011;31440;48.584;13.460;2022-11-15T13:19:47;17.90;;;12.20;;
45730;SDS011;31440;48.584;13.460;2022-11-15T13:22:17;19.98;;;11.18;;
45730;SDS011;31440;48.584;13.460;2022-11-15T13:25:01;15.40;;;10.45;;
45730;SDS011;31440;48.584;13.460;2022-11-15T13:27:28;18.33;;;12.45;;
45730;SDS011;31440;48.584;13.460;2022-11-15T13:29:54;16.45;;;12.30;;
45730;SDS011;31440;48.584;13.460;2022-11-15T13:32:20;16.38;;;12.65;;
45730;SDS011;31440;48.584;13.460;2022-11-15T13:34:46;16.88;;;12.40;;
45730;SDS011;31440;48.584;13.460;2022-11-15T13:39:46;19.08;;;12.75;;
45730;SDS011;31440;48.584;13.460;2022-11-15T13:42:16;18.02;;;12.05;;
45730;SDS011;31440;48.584;13.460;2022-11-15T13:44:55;19.17;;;12.88;;
45730;SDS011;31440;48.584;13.460;2022-11-15T13:47:25;20.73;;;13.95;;
45730;SDS011;31440;48.584;13.460;2022-11-15T13:49:52;19.70;;;14.07;;
45730;SDS011;31440;48.584;13.460;2022-11-15T13:52:18;19.98;;;13.38;;
45730;SDS011;31440;48.584;13.460;2022-11-15T13:54:59;20.63;;;13.85;;
45730;SDS011;31440;48.584;13.460;2022-11-15T13:57:38;19.50;;;14.05;;
45730;SDS011;31440;48.584;13.460;2022-11-15T14:02:57;23.60;;;14.00;;
45730;SDS011;31440;48.584;13.460;2022-11-15T14:05:32;20.50;;;14.35;;
45730;SDS011;31440;48.584;13.460;2022-11-15T14:08:02;20.45;;;14.48;;
45730;SDS011;31440;48.584;13.460;2022-11-15T14:10:37;22.10;;;15.07;;
45730;SDS011;31440;48.584;13.460;2022-11-15T14:13:04;23.00;;;16.60;;
45730;SDS011;31440;48.584;13.460;2022-11-15T14:15:51;26.38;;;15.70;;
45730;SDS011;31440;48.584;13.460;2022-11-15T14:21:07;26.75;;;16.65;;
45730;SDS011;31440;48.584;13.460;2022-11-15T14:23:34;22.50;;;16.45;;
45730;SDS011;31440;48.584;13.460;2022-11-15T14:25:59;26.60;;;16.58;;
45730;SDS011;31440;48.584;13.460;2022-11-15T14:30:51;41.72;;;18.67;;
45730;SDS011;31440;48.584;13.460;2022-11-15T14:33:20;27.33;;;17.67;;
45730;SDS011;31440;48.584;13.460;2022-11-15T14:35:53;26.23;;;16.42;;
45730;SDS011;31440;48.584;13.460;2022-11-15T14:38:20;29.92;;;18.33;;
45730;SDS011;31440;48.584;13.460;2022-11-15T14:40:45;26.55;;;16.70;;
45730;SDS011;31440;48.584;13.460;2022-11-15T14:43:11;30.42;;;18.50;;
45730;SDS011;31440;48.584;13.460;2022-11-15T14:45:37;28.33;;;17.20;;
45730;SDS011;31440;48.584;13.460;2022-11-15T14:48:04;29.52;;;17.92;;
45730;SDS011;31440;48.584;13.460;2022-11-15T14:50:29;30.88;;;17.13;;
45730;SDS011;31440;48.584;13.460;2022-11-15T14:52:56;25.50;;;17.33;;
45730;SDS011;31440;48.584;13.460;2022-11-15T14:55:26;27.52;;;16.63;;
45730;SDS011;31440;48.584;13.460;2022-11-15T14:57:53;28.92;;;17.65;;
45730;SDS011;31440;48.584;13.460;2022-11-15T15:00:19;26.58;;;17.60;;
45730;SDS011;31440;48.584;13.460;2022-11-15T15:02:45;28.20;;;17.08;;
45730;SDS011;31440;48.584;13.460;2022-11-15T15:05:19;28.48;;;16.88;;
45730;SDS011;31440;48.584;13.460;2022-11-15T15:07:46;29.35;;;16.95;;
45730;SDS011;31440;48.584;13.460;2022-11-15T15:10:12;31.13;;;17.80;;
45730;SDS011;31440;48.584;13.460;2022-11-15T15:12:39;28.45;;;16.42;;
45730;SDS011;31440;48.584;13.460;2022-11-15T15:15:05;28.30;;;17.20;;
45730;SDS011;31440;48.584;13.460;2022-11-15T15:17:31;34.45;;;17.55;;
45730;SDS011;31440;48.584;13.460;2022-11-15T15:19:56;32.95;;;18.30;;
45730;SDS011;31440;48.584;13.460;2022-11-15T15:22:22;28.52;;;16.30;;
45730;SDS011;31440;48.584;13.460;2022-11-15T15:24:51;30.20;;;16.73;;
45730;SDS011;31440;48.584;13.460;2022-11-15T15:27:16;30.02;;;17.17;;
45730;SDS011;31440;48.584;13.460;2022-11-15T15:29:42;30.23;;;17.25;;
45730;SDS011;31440;48.584;13.460;2022-11-15T15:32:08;28.92;;;17.30;;
45730;SDS011;31440;48.584;13.460;2022-11-15T15:34:36;32.15;;;17.45;;
45730;SDS011;31440;48.584;13.460;2022-11-15T15:39:51;31.10;;;17.80;;
45730;SDS011;31440;48.584;13.460;2022-11-15T15:42:19;33.80;;;17.17;;
45730;SDS011;31440;48.584;13.460;2022-11-15T15:44:45;32.70;;;16.90;;
45730;SDS011;31440;48.584;13.460;2022-11-15T15:47:12;29.60;;;16.88;;
45730;SDS011;31440;48.584;13.460;2022-11-15T15:49:40;32.05;;;18.40;;
45730;SDS011;31440;48.584;13.460;2022-11-15T15:52:06;32.38;;;17.17;;
45730;SDS011;31440;48.584;13.460;2022-11-15T15:54:32;29.60;;;18.10;;
45730;SDS011;31440;48.584;13.460;2022-11-15T15:56:57;32.38;;;17.08;;
45730;SDS011;31440;48.584;13.460;2022-11-15T15:59:23;32.25;;;18.40;;
45730;SDS011;31440;48.584;13.460;2022-11-15T16:01:48;33.92;;;18.30;;
45730;SDS011;31440;48.584;13.460;2022-11-15T16:04:14;36.60;;;19.25;;
45730;SDS011;31440;48.584;13.460;2022-11-15T16:06:40;33.22;;;18.15;;
45730;SDS011;31440;48.584;13.460;2022-11-15T16:09:12;35.35;;;17.33;;
45730;SDS011;31440;48.584;13.460;2022-11-15T16:11:39;34.30;;;17.52;;
45730;SDS011;31440;48.584;13.460;2022-11-15T16:14:04;31.55;;;17.80;;
45730;SDS011;31440;48.584;13.460;2022-11-15T16:16:30;37.22;;;19.17;;
45730;SDS011;31440;48.584;13.460;2022-11-15T16:18:56;32.60;;;17.15;;
45730;SDS011;31440;48.584;13.460;2022-11-15T16:21:21;33.30;;;18.95;;
45730;SDS011;31440;48.584;13.460;2022-11-15T16:23:47;35.47;;;17.27;;
45730;SDS011;31440;48.584;13.460;2022-11-15T16:26:19;39.13;;;19.90;;
45730;SDS011;31440;48.584;13.460;2022-11-15T16:28:45;33.28;;;19.23;;
45730;SDS011;31440;48.584;13.460;2022-11-15T16:31:11;34.75;;;19.35;;
45730;SDS011;31440;48.584;13.460;2022-11-15T16:33:37;33.10;;;18.27;;
45730;SDS011;31440;48.584;13.460;2022-11-15T16:36:04;37.85;;;19.15;;
45730;SDS011;31440;48.584;13.460;2022-11-15T16:38:30;32.75;;;17.70;;
45730;SDS011;31440;48.584;13.460;2022-11-15T16:40:56;39.92;;;19.08;;
45730;SDS011;31440;48.584;13.460;2022-11-15T16:43:22;36.70;;;17.90;;
45730;SDS011;31440;48.584;13.460;2022-11-15T16:45:48;38.85;;;19.23;;
45730;SDS011;31440;48.584;13.460;2022-11-15T16:48:24;37.20;;;19.90;;
45730;SDS011;31440;48.584;13.460;2022-11-15T16:50:54;32.20;;;17.60;;
45730;SDS011;31440;48.584;13.460;2022-11-15T16:53:21;30.52;;;16.55;;
45730;SDS011;31440;48.584;13.460;2022-11-15T16:55:47;36.10;;;18.77;;
45730;SDS011;31440;48.584;13.460;2022-11-15T16:58:13;33.13;;;18.05;;
45730;SDS011;31440;48.584;13.460;2022-11-15T17:00:38;37.28;;;18.13;;
45730;SDS011;31440;48.584;13.460;2022-11-15T17:03:04;34.33;;;19.02;;
45730;SDS011;31440;48.584;13.460;2022-11-15T17:05:30;40.45;;;19.33;;
45730;SDS011;31440;48.584;13.460;2022-11-15T17:07:55;35.53;;;19.30;;
45730;SDS011;31440;48.584;13.460;2022-11-15T17:10:22;38.53;;;19.52;;
45730;SDS011;31440;48.584;13.460;2022-11-15T17:12:48;37.25;;;20.05;;
45730;SDS011;31440;48.584;13.460;2022-11-15T17:15:15;35.65;;;19.85;;
45730;SDS011;31440;48.584;13.460;2022-11-15T17:17:41;37.47;;;20.25;;
45730;SDS011;31440;48.584;13.460;2022-11-15T17:20:11;39.60;;;19.75;;
45730;SDS011;31440;48.584;13.460;2022-11-15T17:22:39;38.22;;;20.48;;